createdAt,value
2022-09-12T00:01:24.385Z,101867.91
2022-09-12T00:03:59.934Z,101868.81
2022-09-12T00:06:35.597Z,101879.41
2022-09-12T00:09:12.344Z,101862.75
2022-09-12T00:11:47.099Z,101875.03
2022-09-12T00:14:20.017Z,101867.16
2022-09-12T00:16:52.067Z,101866.28
2022-09-12T00:19:24.013Z,101863.66
2022-09-12T00:21:56.173Z,101852.28
2022-09-12T00:24:28.232Z,101853.16
2022-09-12T00:27:01.222Z,101839.13
2022-09-12T00:29:33.186Z,101841.78
2022-09-12T00:32:05.163Z,101834.75
2022-09-12T00:34:37.322Z,101837.41
2022-09-12T00:37:09.337Z,101833.88
2022-09-12T00:39:41.309Z,101831.25
2022-09-12T00:42:13.588Z,101833.88
2022-09-12T00:44:49.983Z,101833.00
2022-09-12T00:47:28.602Z,101831.22
2022-09-12T00:50:10.291Z,101833.88
2022-09-12T00:52:46.609Z,101833.88
2022-09-12T00:55:41.868Z,101827.75
2022-09-12T00:58:41.143Z,101820.78
2022-09-12T01:01:13.159Z,101825.19
2022-09-12T01:03:45.309Z,101819.91
2022-09-12T01:06:29.416Z,101825.19
2022-09-12T01:09:05.029Z,101819.91
2022-09-12T01:11:39.179Z,101819.91
2022-09-12T01:14:11.277Z,101819.00
2022-09-12T01:16:45.305Z,101813.75
2022-09-12T01:19:46.368Z,101813.75
2022-09-12T01:23:06.362Z,101816.41
2022-09-12T01:26:01.143Z,101819.94
2022-09-12T01:29:13.588Z,101813.75
2022-09-12T01:32:15.174Z,101814.66
2022-09-12T01:34:53.389Z,101811.16
2022-09-12T01:37:39.774Z,101813.78
2022-09-12T01:40:38.663Z,101805.03
2022-09-12T01:43:37.936Z,101805.94
2022-09-12T01:46:32.032Z,101803.28
2022-09-12T01:49:34.230Z,101799.81
2022-09-12T01:52:37.647Z,101798.09
2022-09-12T01:55:22.924Z,101800.72
2022-09-12T01:58:04.305Z,101800.72
2022-09-12T02:00:45.873Z,101796.34
2022-09-12T02:03:24.649Z,101794.56
2022-09-12T02:06:19.942Z,101789.31
2022-09-12T02:08:58.590Z,101787.56
2022-09-12T02:11:33.396Z,101777.03
2022-09-12T02:14:16.129Z,101783.22
2022-09-12T02:17:02.462Z,101776.22
2022-09-12T02:19:43.901Z,101775.34
2022-09-12T02:22:20.117Z,101768.31
2022-09-12T02:24:59.701Z,101760.44
2022-09-12T02:27:40.607Z,101765.72
2022-09-12T02:30:16.571Z,101764.88
2022-09-12T02:33:12.261Z,101762.28
2022-09-12T02:36:02.130Z,101764.94
2022-09-12T02:38:42.331Z,101775.47
2022-09-12T02:41:19.060Z,101767.59
2022-09-12T02:43:52.850Z,101767.56
2022-09-12T02:46:41.837Z,101766.72
2022-09-12T02:49:14.178Z,101766.72
2022-09-12T02:51:47.935Z,101766.72
2022-09-12T02:54:21.246Z,101756.19
2022-09-12T02:56:53.267Z,101757.09
2022-09-12T02:59:26.170Z,101756.25
2022-09-12T03:02:10.760Z,101757.16
2022-09-12T03:05:06.710Z,101755.44
2022-09-12T03:08:15.581Z,101754.56
2022-09-12T03:11:18.204Z,101755.47
2022-09-12T03:14:10.681Z,101750.19
2022-09-12T03:16:53.908Z,101747.56
2022-09-12T03:19:57.551Z,101748.47
2022-09-12T03:22:39.600Z,101753.72
2022-09-12T03:25:36.787Z,101753.72
2022-09-12T03:28:16.096Z,101749.34
2022-09-12T03:30:51.481Z,101750.19
2022-09-12T03:33:25.455Z,101754.59
2022-09-12T03:35:57.453Z,101753.72
2022-09-12T03:38:29.366Z,101759.84
2022-09-12T03:41:01.415Z,101758.09
2022-09-12T03:43:33.421Z,101755.47
2022-09-12T03:46:05.450Z,101757.25
2022-09-12T03:48:37.490Z,101755.50
2022-09-12T03:51:10.724Z,101754.56
2022-09-12T03:53:42.824Z,101751.09
2022-09-12T03:56:15.015Z,101754.63
2022-09-12T03:58:47.466Z,101751.97
2022-09-12T04:01:20.848Z,101749.34
2022-09-12T04:03:53.152Z,101743.22
2022-09-12T04:06:25.067Z,101746.75
2022-09-12T04:08:57.259Z,101750.28
2022-09-12T04:11:29.155Z,101745.00
2022-09-12T04:14:01.090Z,101745.88
2022-09-12T04:16:33.080Z,101750.25
2022-09-12T04:19:05.082Z,101750.28
2022-09-12T04:21:36.973Z,101749.41
2022-09-12T04:24:09.004Z,101752.06
2022-09-12T04:26:41.160Z,101741.56
2022-09-12T04:29:15.147Z,101746.81
2022-09-12T04:31:47.061Z,101738.94
2022-09-12T04:34:19.590Z,101739.81
2022-09-12T04:36:51.661Z,101744.22
2022-09-12T04:39:23.652Z,101749.47
2022-09-12T04:41:55.629Z,101747.72
2022-09-12T04:44:27.579Z,101745.97
2022-09-12T04:46:59.479Z,101753.88
2022-09-12T04:49:31.700Z,101747.75
2022-09-12T04:52:03.607Z,101746.84
2022-09-12T04:54:35.931Z,101743.38
2022-09-12T04:57:07.908Z,101744.25
2022-09-12T04:59:40.049Z,101746.03
2022-09-12T05:02:12.111Z,101742.59
2022-09-12T05:04:44.056Z,101745.25
2022-09-12T05:07:16.047Z,101745.28
2022-09-12T05:09:47.984Z,101746.16
2022-09-12T05:12:19.996Z,101749.66
2022-09-12T05:14:51.952Z,101747.03
2022-09-12T05:17:23.915Z,101753.19
2022-09-12T05:19:55.907Z,101753.19
2022-09-12T05:22:27.842Z,101756.69
2022-09-12T05:24:59.786Z,101752.34
2022-09-12T05:27:31.710Z,101761.09
2022-09-12T05:30:04.821Z,101746.22
2022-09-12T05:32:36.739Z,101746.16
2022-09-12T05:35:08.789Z,101747.03
2022-09-12T05:37:40.725Z,101747.88
2022-09-12T05:40:16.196Z,101744.41
2022-09-12T05:42:48.196Z,101740.88
2022-09-12T05:45:20.197Z,101739.06
2022-09-12T05:47:52.166Z,101738.16
2022-09-12T05:50:24.190Z,101733.78
2022-09-12T05:52:57.620Z,101738.97
2022-09-12T05:55:31.022Z,101743.34
2022-09-12T05:58:02.930Z,101741.66
2022-09-12T06:00:34.921Z,101740.78
2022-09-12T06:03:06.903Z,101731.09
2022-09-12T06:05:39.865Z,101741.53
2022-09-12T06:08:12.030Z,101734.44
2022-09-12T06:10:44.072Z,101739.69
2022-09-12T06:13:15.959Z,101736.22
2022-09-12T06:15:47.870Z,101738.78
2022-09-12T06:18:21.086Z,101741.41
2022-09-12T06:20:53.000Z,101734.44
2022-09-12T06:23:26.980Z,101731.75
2022-09-12T06:25:58.927Z,101722.91
2022-09-12T06:28:32.965Z,101724.72
2022-09-12T06:31:15.863Z,101732.66
2022-09-12T06:33:51.126Z,101725.59
2022-09-12T06:36:29.249Z,101726.53
2022-09-12T06:39:22.421Z,101737.91
2022-09-12T06:41:54.639Z,101730.00
2022-09-12T06:44:26.582Z,101729.09
2022-09-12T06:46:58.850Z,101733.41
2022-09-12T06:49:31.686Z,101723.72
2022-09-12T06:52:03.661Z,101725.41
2022-09-12T06:54:35.593Z,101726.13
2022-09-12T06:57:08.504Z,101718.06
2022-09-12T06:59:40.421Z,101716.25
2022-09-12T07:02:15.406Z,101724.06
2022-09-12T07:04:47.432Z,101712.41
2022-09-12T07:07:19.670Z,101720.06
2022-09-12T07:09:51.656Z,101726.97
2022-09-12T07:12:23.645Z,101734.81
2022-09-12T07:14:55.758Z,101731.88
2022-09-12T07:17:27.716Z,101731.56
2022-09-12T07:20:00.265Z,101728.75
2022-09-12T07:22:32.260Z,101731.13
2022-09-12T07:25:05.141Z,101730.84
2022-09-12T07:27:39.854Z,101736.66
2022-09-12T07:30:12.223Z,101725.59
2022-09-12T07:32:44.517Z,101714.75
2022-09-12T07:35:16.488Z,101709.56
2022-09-12T07:37:48.517Z,101714.63
2022-09-12T07:40:20.484Z,101716.25
2022-09-12T07:42:52.555Z,101719.78
2022-09-12T07:45:24.544Z,101719.09
2022-09-12T07:47:56.875Z,101713.03
2022-09-12T07:50:28.799Z,101715.63
2022-09-12T07:53:00.868Z,101711.75
2022-09-12T07:55:33.210Z,101714.13
2022-09-12T07:58:05.144Z,101717.78
2022-09-12T08:00:37.918Z,101725.03
2022-09-12T08:03:10.298Z,101729.81
2022-09-12T08:05:42.407Z,101723.19
2022-09-12T08:08:14.935Z,101720.59
2022-09-12T08:10:46.839Z,101720.59
2022-09-12T08:13:18.791Z,101725.84
2022-09-12T08:15:50.760Z,101724.88
2022-09-12T08:18:22.693Z,101730.84
2022-09-12T08:21:03.760Z,101729.25
2022-09-12T08:23:35.930Z,101726.84
2022-09-12T08:26:08.369Z,101729.03
2022-09-12T08:28:45.711Z,101725.03
2022-09-12T08:31:21.358Z,101726.53
2022-09-12T08:33:56.801Z,101728.50
2022-09-12T08:36:29.718Z,101724.78
2022-09-12T08:39:07.597Z,101720.00
2022-09-12T08:41:44.040Z,101721.19
2022-09-12T08:44:53.714Z,101722.16
2022-09-12T08:47:31.761Z,101725.44
2022-09-12T08:50:09.732Z,101715.78
2022-09-12T08:52:53.392Z,101712.69
2022-09-12T08:55:28.191Z,101717.25
2022-09-12T08:58:05.244Z,101708.97
2022-09-12T09:01:04.729Z,101713.91
2022-09-12T09:04:08.891Z,101718.38
2022-09-12T09:07:17.757Z,101707.31
2022-09-12T09:10:45.259Z,101703.31
2022-09-12T09:14:05.316Z,101699.97
2022-09-12T09:16:42.967Z,101696.59
2022-09-12T09:19:21.703Z,101691.38
2022-09-12T09:22:03.615Z,101683.22
2022-09-12T09:24:41.670Z,101697.03
2022-09-12T09:27:39.245Z,101698.94
2022-09-12T09:30:18.951Z,101686.19
2022-09-12T09:33:02.204Z,101688.00
2022-09-12T09:35:42.880Z,101684.78
2022-09-12T09:38:38.544Z,101687.16
2022-09-12T09:41:41.898Z,101682.97
2022-09-12T09:44:14.055Z,101674.59
2022-09-12T09:46:55.018Z,101682.88
2022-09-12T09:49:31.466Z,101686.88
2022-09-12T09:52:06.371Z,101684.34
2022-09-12T09:54:47.625Z,101684.50
2022-09-12T09:57:41.318Z,101689.09
2022-09-12T10:00:26.739Z,101682.31
2022-09-12T10:03:13.747Z,101685.13
2022-09-12T10:05:53.048Z,101678.72
2022-09-12T10:08:36.948Z,101680.72
2022-09-12T10:11:26.998Z,101688.31
2022-09-12T10:14:03.177Z,101679.41
2022-09-12T10:16:52.784Z,101671.41
2022-09-12T10:19:36.168Z,101684.59
2022-09-12T10:22:20.566Z,101669.53
2022-09-12T10:24:57.207Z,101667.91
2022-09-12T10:27:32.442Z,101666.06
2022-09-12T10:30:17.779Z,101663.19
2022-09-12T10:32:50.942Z,101656.66
2022-09-12T10:35:31.685Z,101659.03
2022-09-12T10:38:07.119Z,101659.03
2022-09-12T10:40:42.856Z,101654.72
2022-09-12T10:43:44.915Z,101652.84
2022-09-12T10:46:19.675Z,101654.72
2022-09-12T10:49:13.960Z,101648.38
2022-09-12T10:51:45.864Z,101638.19
2022-09-12T10:54:21.064Z,101639.78
2022-09-12T10:57:26.982Z,101633.66
2022-09-12T11:00:18.270Z,101634.38
2022-09-12T11:03:07.037Z,101627.59
2022-09-12T11:05:56.040Z,101624.28
2022-09-12T11:08:44.368Z,101628.31
2022-09-12T11:11:19.247Z,101624.13
2022-09-12T11:14:10.631Z,101618.72
2022-09-12T11:17:13.755Z,101625.94
2022-09-12T11:20:19.638Z,101616.47
2022-09-12T11:23:15.596Z,101611.00
2022-09-12T11:26:23.013Z,101605.38
2022-09-12T11:29:38.198Z,101610.28
2022-09-12T11:32:51.026Z,101610.28
2022-09-12T11:35:32.506Z,101608.56
2022-09-12T11:38:36.458Z,101606.69
2022-09-12T11:41:34.579Z,101596.38
2022-09-12T11:44:29.576Z,101596.25
2022-09-12T11:47:08.442Z,101596.50
2022-09-12T11:49:51.125Z,101602.81
2022-09-12T11:52:35.986Z,101590.09
2022-09-12T11:55:17.167Z,101594.84
2022-09-12T11:58:00.970Z,101593.22
2022-09-12T12:00:45.031Z,101587.53
2022-09-12T12:03:31.894Z,101580.63
2022-09-12T12:06:21.542Z,101580.66
2022-09-12T12:08:53.824Z,101576.31
2022-09-12T12:11:43.185Z,101579.38
2022-09-12T12:14:45.507Z,101578.56
2022-09-12T12:17:23.617Z,101577.47
2022-09-12T12:20:08.448Z,101579.47
2022-09-12T12:22:53.175Z,101569.19
2022-09-12T12:26:02.211Z,101575.47
2022-09-12T12:28:58.973Z,101569.84
2022-09-12T12:31:31.234Z,101567.34
2022-09-12T12:34:25.250Z,101570.59
2022-09-12T12:36:58.464Z,101568.97
2022-09-12T12:39:51.374Z,101556.13
2022-09-12T12:42:35.349Z,101564.78
2022-09-12T12:45:10.183Z,101547.78
2022-09-12T12:47:47.886Z,101550.72
2022-09-12T12:50:19.757Z,101548.13
2022-09-12T12:53:04.132Z,101535.56
2022-09-12T12:55:50.331Z,101542.56
2022-09-12T12:58:31.539Z,101536.25
2022-09-12T13:01:19.577Z,101529.66
2022-09-12T13:04:11.323Z,101520.41
2022-09-12T13:06:58.550Z,101505.66
2022-09-12T13:09:44.706Z,101500.41
2022-09-12T13:12:44.435Z,101504.09
2022-09-12T13:15:38.505Z,101493.63
2022-09-12T13:18:41.206Z,101503.78
2022-09-12T13:21:19.805Z,101492.59
2022-09-12T13:24:15.953Z,101497.25
2022-09-12T13:26:48.068Z,101500.81
2022-09-12T13:29:23.331Z,101495.97
2022-09-12T13:32:01.678Z,101497.47
2022-09-12T13:34:37.781Z,101484.63
2022-09-12T13:37:30.716Z,101487.56
2022-09-12T13:40:25.427Z,101478.69
2022-09-12T13:43:14.061Z,101472.78
2022-09-12T13:45:47.729Z,101480.66
2022-09-12T13:48:25.673Z,101470.00
2022-09-12T13:51:06.138Z,101466.97
2022-09-12T13:53:47.934Z,101463.34
2022-09-12T13:56:21.125Z,101463.47
2022-09-12T13:58:57.580Z,101467.13
2022-09-12T14:01:41.606Z,101462.81
2022-09-12T14:04:44.589Z,101461.78
2022-09-12T14:07:23.093Z,101461.78
2022-09-12T14:09:58.648Z,101459.59
2022-09-12T14:12:43.468Z,101454.25
2022-09-12T14:15:24.675Z,101446.97
2022-09-12T14:18:01.641Z,101435.97
2022-09-12T14:20:39.563Z,101432.09
2022-09-12T14:23:31.210Z,101431.66
2022-09-12T14:26:08.335Z,101435.69
2022-09-12T14:28:47.498Z,101418.97
2022-09-12T14:31:32.405Z,101430.94
2022-09-12T14:34:19.125Z,101418.47
2022-09-12T14:36:55.216Z,101426.31
2022-09-12T14:39:38.067Z,101414.09
2022-09-12T14:42:21.591Z,101416.59
2022-09-12T14:45:06.594Z,101418.59
2022-09-12T14:47:44.578Z,101415.91
2022-09-12T14:50:21.961Z,101406.09
2022-09-12T14:53:21.848Z,101398.38
2022-09-12T14:56:13.618Z,101401.56
2022-09-12T14:58:45.614Z,101398.72
2022-09-12T15:01:25.826Z,101388.72
2022-09-12T15:03:58.163Z,101385.88
2022-09-12T15:06:38.074Z,101387.44
2022-09-12T15:09:13.833Z,101379.94
2022-09-12T15:11:45.737Z,101379.19
2022-09-12T15:14:17.938Z,101376.06
2022-09-12T15:16:49.887Z,101380.91
2022-09-12T15:19:21.864Z,101377.53
2022-09-12T15:21:53.809Z,101381.47
2022-09-12T15:24:27.239Z,101377.50
2022-09-12T15:26:59.234Z,101377.25
2022-09-12T15:29:31.188Z,101375.44
2022-09-12T15:32:03.187Z,101373.72
2022-09-12T15:34:35.255Z,101370.19
2022-09-12T15:37:16.562Z,101368.53
2022-09-12T15:39:49.393Z,101374.59
2022-09-12T15:42:29.275Z,101373.78
2022-09-12T15:45:02.818Z,101379.13
2022-09-12T15:47:35.148Z,101374.59
2022-09-12T15:50:07.675Z,101368.38
2022-09-12T15:52:39.788Z,101371.19
2022-09-12T15:55:26.576Z,101358.78
2022-09-12T15:58:03.599Z,101359.97
2022-09-12T16:00:38.534Z,101364.44
2022-09-12T16:03:25.715Z,101364.53
2022-09-12T16:06:01.611Z,101354.47
2022-09-12T16:08:34.490Z,101361.22
2022-09-12T16:11:12.651Z,101355.81
2022-09-12T16:13:44.674Z,101350.88
2022-09-12T16:16:16.738Z,101350.00
2022-09-12T16:18:49.103Z,101344.03
2022-09-12T16:21:21.289Z,101347.19
2022-09-12T16:23:53.495Z,101346.16
2022-09-12T16:26:25.451Z,101341.38
2022-09-12T16:28:59.189Z,101337.69
2022-09-12T16:31:31.226Z,101334.00
2022-09-12T16:34:03.277Z,101325.59
2022-09-12T16:36:35.185Z,101314.13
2022-09-12T16:39:07.366Z,101313.19
2022-09-12T16:41:42.205Z,101304.72
2022-09-12T16:44:14.471Z,101298.22
2022-09-12T16:46:46.598Z,101296.50
2022-09-12T16:49:18.648Z,101283.94
2022-09-12T16:51:50.631Z,101292.97
2022-09-12T16:54:22.992Z,101287.09
2022-09-12T16:56:55.080Z,101284.47
2022-09-12T16:59:27.057Z,101282.66
2022-09-12T17:01:59.142Z,101283.25
2022-09-12T17:04:31.120Z,101292.19
2022-09-12T17:07:03.082Z,101285.59
2022-09-12T17:09:35.320Z,101287.56
2022-09-12T17:12:07.395Z,101282.84
2022-09-12T17:14:39.313Z,101281.28
2022-09-12T17:17:11.946Z,101281.44
2022-09-12T17:19:43.965Z,101273.81
2022-09-12T17:22:16.189Z,101278.50
2022-09-12T17:24:48.185Z,101269.00
2022-09-12T17:27:20.302Z,101268.69
2022-09-12T17:29:52.285Z,101270.13
2022-09-12T17:32:24.217Z,101261.81
2022-09-12T17:34:57.071Z,101255.47
2022-09-12T17:37:29.169Z,101248.63
2022-09-12T17:40:05.873Z,101250.78
2022-09-12T17:42:42.816Z,101251.44
2022-09-12T17:45:18.392Z,101263.81
2022-09-12T17:47:50.995Z,101261.31
2022-09-12T17:50:32.092Z,101254.41
2022-09-12T17:53:06.488Z,101250.72
2022-09-12T17:55:40.732Z,101256.34
2022-09-12T17:58:12.810Z,101246.63
2022-09-12T18:01:03.182Z,101249.31
2022-09-12T18:03:35.348Z,101249.41
2022-09-12T18:06:07.898Z,101250.41
2022-09-12T18:08:39.847Z,101248.22
2022-09-12T18:11:11.895Z,101247.56
2022-09-12T18:13:43.897Z,101242.19
2022-09-12T18:16:16.064Z,101246.72
2022-09-12T18:18:51.022Z,101240.81
2022-09-12T18:21:23.104Z,101241.22
2022-09-12T18:23:59.102Z,101239.75
2022-09-12T18:26:31.634Z,101237.66
2022-09-12T18:29:03.927Z,101230.81
2022-09-12T18:31:36.329Z,101236.00
2022-09-12T18:34:12.749Z,101234.41
2022-09-12T18:36:50.748Z,101235.34
2022-09-12T18:39:27.460Z,101228.34
2022-09-12T18:41:59.897Z,101226.75
2022-09-12T18:44:31.922Z,101222.63
2022-09-12T18:47:04.366Z,101212.16
2022-09-12T18:49:36.309Z,101214.97
2022-09-12T18:52:08.391Z,101213.50
2022-09-12T18:54:40.355Z,101212.81
2022-09-12T18:57:12.286Z,101213.88
2022-09-12T18:59:44.733Z,101208.81
2022-09-12T19:02:17.126Z,101204.69
2022-09-12T19:04:49.324Z,101208.41
2022-09-12T19:07:21.529Z,101205.91
2022-09-12T19:09:53.694Z,101198.25
2022-09-12T19:12:25.678Z,101205.66
2022-09-12T19:14:58.163Z,101210.09
2022-09-12T19:17:30.606Z,101213.56
2022-09-12T19:20:03.508Z,101205.72
2022-09-12T19:22:35.421Z,101213.13
2022-09-12T19:25:08.207Z,101213.50
2022-09-12T19:27:40.242Z,101212.75
2022-09-12T19:30:12.517Z,101212.09
2022-09-12T19:32:45.000Z,101208.50
2022-09-12T19:35:16.958Z,101204.06
2022-09-12T19:37:49.076Z,101204.94
2022-09-12T19:40:21.075Z,101211.03
2022-09-12T19:42:53.555Z,101207.53
2022-09-12T19:45:25.605Z,101206.72
2022-09-12T19:47:57.686Z,101198.13
2022-09-12T19:50:33.351Z,101207.19
2022-09-12T19:53:06.073Z,101202.16
2022-09-12T19:55:38.426Z,101188.78
2022-09-12T19:58:10.862Z,101184.50
2022-09-12T20:00:42.822Z,101182.84
2022-09-12T20:03:14.780Z,101189.19
2022-09-12T20:05:46.742Z,101173.19
2022-09-12T20:08:18.696Z,101169.22
2022-09-12T20:10:55.053Z,101160.28
2022-09-12T20:13:28.857Z,101145.53
2022-09-12T20:16:28.680Z,101143.75
2022-09-12T20:19:08.618Z,101139.50
2022-09-12T20:21:40.848Z,101129.41
2022-09-12T20:24:15.821Z,101126.59
2022-09-12T20:26:47.862Z,101125.84
2022-09-12T20:29:19.764Z,101127.50
2022-09-12T20:31:51.737Z,101122.50
2022-09-12T20:34:23.735Z,101126.34
2022-09-12T20:36:55.700Z,101126.25
2022-09-12T20:39:27.805Z,101128.19
2022-09-12T20:41:59.744Z,101122.97
2022-09-12T20:44:31.696Z,101123.94
2022-09-12T20:47:03.777Z,101122.31
2022-09-12T20:49:35.709Z,101125.78
2022-09-12T20:52:07.660Z,101124.78
2022-09-12T20:54:39.579Z,101122.22
2022-09-12T20:57:11.557Z,101107.22
2022-09-12T20:59:43.473Z,101109.13
2022-09-12T21:02:16.641Z,101097.13
2022-09-12T21:04:48.669Z,101092.84
2022-09-12T21:07:20.607Z,101090.03
2022-09-12T21:09:54.380Z,101099.88
2022-09-12T21:12:28.354Z,101088.97
2022-09-12T21:15:00.461Z,101087.94
2022-09-12T21:17:32.475Z,101084.28
2022-09-12T21:20:08.048Z,101080.59
2022-09-12T21:22:43.331Z,101079.13
2022-09-12T21:25:15.364Z,101077.19
2022-09-12T21:27:47.295Z,101080.06
2022-09-12T21:30:19.421Z,101074.81
2022-09-12T21:32:52.030Z,101080.75
2022-09-12T21:35:24.141Z,101076.38
2022-09-12T21:37:56.136Z,101070.97
2022-09-12T21:40:28.229Z,101070.09
2022-09-12T21:43:00.426Z,101063.25
2022-09-12T21:45:32.443Z,101057.72
2022-09-12T21:48:04.766Z,101055.06
2022-09-12T21:50:36.723Z,101053.28
2022-09-12T21:53:08.726Z,101053.41
2022-09-12T21:55:40.708Z,101057.72
2022-09-12T21:58:12.715Z,101055.00
2022-09-12T22:00:44.832Z,101055.72
2022-09-12T22:03:17.924Z,101051.28
2022-09-12T22:06:08.111Z,101056.63
2022-09-12T22:08:40.445Z,101053.00
2022-09-12T22:11:12.990Z,101044.19
2022-09-12T22:13:45.307Z,101041.53
2022-09-12T22:16:17.853Z,101031.75
2022-09-12T22:18:50.861Z,101024.72
2022-09-12T22:21:24.389Z,101025.69
2022-09-12T22:24:15.071Z,101021.22
2022-09-12T22:26:47.177Z,101023.81
2022-09-12T22:29:19.760Z,101023.75
2022-09-12T22:31:51.758Z,101017.94
2022-09-12T22:34:23.716Z,101023.22
2022-09-12T22:36:56.522Z,101025.88
2022-09-12T22:39:28.502Z,101018.91
2022-09-12T22:42:01.673Z,101019.25
2022-09-12T22:44:33.910Z,101005.72
2022-09-12T22:47:05.932Z,100997.59
2022-09-12T22:49:37.992Z,100998.88
2022-09-12T22:52:09.911Z,100990.28
2022-09-12T22:54:43.686Z,100990.28
2022-09-12T22:57:15.624Z,100990.97
2022-09-12T22:59:47.560Z,100983.09
2022-09-12T23:02:19.483Z,100992.47
2022-09-12T23:04:52.483Z,100984.63
2022-09-12T23:07:24.491Z,100979.41
2022-09-12T23:09:56.386Z,100985.75
2022-09-12T23:12:28.369Z,100994.94
2022-09-12T23:15:00.398Z,100983.78
2022-09-12T23:17:34.976Z,100988.16
2022-09-12T23:20:07.830Z,100982.75
2022-09-12T23:22:39.779Z,100981.06
2022-09-12T23:25:11.855Z,100982.91
2022-09-12T23:27:44.438Z,100987.94
2022-09-12T23:30:21.290Z,100980.91
2022-09-12T23:32:53.274Z,100980.72
2022-09-12T23:35:25.298Z,100982.28
2022-09-12T23:37:57.941Z,100978.47
2022-09-12T23:40:29.873Z,100976.56
2022-09-12T23:43:01.826Z,100976.63
2022-09-12T23:45:33.890Z,100982.63
2022-09-12T23:48:05.871Z,100985.91
2022-09-12T23:50:37.804Z,100977.91
2022-09-12T23:53:11.857Z,100970.75
2022-09-12T23:55:44.966Z,100975.94
2022-09-12T23:58:17.426Z,100969.72
